sensor_id;sensor_type;location;lat;lon;timestamp;pressure;altitude;pressure_sealevel;temperature;humidity
38852;BME280;24605;50.092;9.182;2023-03-01T00:01:02;98942.97;;;-2.46;99.73
38852;BME280;24605;50.092;9.182;2023-03-01T00:03:29;98949.53;;;-2.39;99.20
38852;BME280;24605;50.092;9.182;2023-03-01T00:05:57;98947.75;;;-2.59;99.97
38852;BME280;24605;50.092;9.182;2023-03-01T00:08:23;98946.94;;;-2.59;100.00
38852;BME280;24605;50.092;9.182;2023-03-01T00:10:59;98950.38;;;-2.60;100.00
38852;BME280;24605;50.092;9.182;2023-03-01T00:13:26;98948.63;;;-2.38;99.35
38852;BME280;24605;50.092;9.182;2023-03-01T00:15:52;98955.72;;;-2.22;97.90
38852;BME280;24605;50.092;9.182;2023-03-01T00:18:19;98941.91;;;-2.19;97.36
38852;BME280;24605;50.092;9.182;2023-03-01T00:20:49;98946.28;;;-2.22;97.77
38852;BME280;24605;50.092;9.182;2023-03-01T00:23:18;98913.00;;;-2.25;97.28
38852;BME280;24605;50.092;9.182;2023-03-01T00:25:44;98924.13;;;-2.03;96.30
38852;BME280;24605;50.092;9.182;2023-03-01T00:28:11;98915.66;;;-2.06;95.90
38852;BME280;24605;50.092;9.182;2023-03-01T00:30:37;98909.53;;;-2.03;95.32
38852;BME280;24605;50.092;9.182;2023-03-01T00:33:04;98916.03;;;-2.15;95.93
38852;BME280;24605;50.092;9.182;2023-03-01T00:35:32;98915.56;;;-2.25;96.39
38852;BME280;24605;50.092;9.182;2023-03-01T00:37:59;98907.25;;;-2.09;96.12
38852;BME280;24605;50.092;9.182;2023-03-01T00:40:28;98883.41;;;-2.33;95.81
38852;BME280;24605;50.092;9.182;2023-03-01T00:42:55;98908.59;;;-2.21;96.25
38852;BME280;24605;50.092;9.182;2023-03-01T00:45:21;98911.72;;;-2.14;96.10
38852;BME280;24605;50.092;9.182;2023-03-01T00:47:48;98920.09;;;-2.09;96.08
38852;BME280;24605;50.092;9.182;2023-03-01T00:50:15;98922.84;;;-2.14;96.56
38852;BME280;24605;50.092;9.182;2023-03-01T00:52:42;98882.31;;;-2.28;96.35
38852;BME280;24605;50.092;9.182;2023-03-01T00:55:09;98916.66;;;-2.10;96.69
38852;BME280;24605;50.092;9.182;2023-03-01T00:57:37;98881.25;;;-2.22;96.15
38852;BME280;24605;50.092;9.182;2023-03-01T01:00:05;98910.31;;;-2.01;96.23
38852;BME280;24605;50.092;9.182;2023-03-01T01:02:33;98899.75;;;-1.95;95.75
38852;BME280;24605;50.092;9.182;2023-03-01T01:05:00;98899.75;;;-1.95;95.80
38852;BME280;24605;50.092;9.182;2023-03-01T01:07:27;98889.38;;;-1.92;95.96
38852;BME280;24605;50.092;9.182;2023-03-01T01:09:53;98906.88;;;-1.81;95.70
38852;BME280;24605;50.092;9.182;2023-03-01T01:12:21;98897.31;;;-1.98;95.86
38852;BME280;24605;50.092;9.182;2023-03-01T01:14:49;98892.72;;;-1.90;95.98
38852;BME280;24605;50.092;9.182;2023-03-01T01:17:15;98872.41;;;-1.96;95.34
38852;BME280;24605;50.092;9.182;2023-03-01T01:19:42;98865.84;;;-1.82;95.20
38852;BME280;24605;50.092;9.182;2023-03-01T01:22:08;98865.25;;;-1.89;95.08
38852;BME280;24605;50.092;9.182;2023-03-01T01:24:35;98857.56;;;-1.89;95.23
38852;BME280;24605;50.092;9.182;2023-03-01T01:27:02;98863.97;;;-1.79;94.77
38852;BME280;24605;50.092;9.182;2023-03-01T01:29:28;98857.91;;;-1.78;94.47
38852;BME280;24605;50.092;9.182;2023-03-01T01:31:56;98862.28;;;-1.80;94.46
38852;BME280;24605;50.092;9.182;2023-03-01T01:34:23;98854.66;;;-1.81;94.35
38852;BME280;24605;50.092;9.182;2023-03-01T01:36:50;98858.16;;;-1.84;94.82
38852;BME280;24605;50.092;9.182;2023-03-01T01:39:18;98857.22;;;-1.81;94.63
38852;BME280;24605;50.092;9.182;2023-03-01T01:41:45;98855.56;;;-1.82;94.90
38852;BME280;24605;50.092;9.182;2023-03-01T01:44:15;98857.63;;;-1.91;95.06
38852;BME280;24605;50.092;9.182;2023-03-01T01:46:44;98857.28;;;-1.83;94.78
38852;BME280;24605;50.092;9.182;2023-03-01T01:49:19;98860.69;;;-1.82;94.97
38852;BME280;24605;50.092;9.182;2023-03-01T01:51:49;98846.22;;;-2.04;94.99
38852;BME280;24605;50.092;9.182;2023-03-01T01:54:21;98856.84;;;-1.93;95.33
38852;BME280;24605;50.092;9.182;2023-03-01T01:56:53;98829.81;;;-2.01;94.85
38852;BME280;24605;50.092;9.182;2023-03-01T01:59:21;98861.38;;;-1.79;94.54
38852;BME280;24605;50.092;9.182;2023-03-01T02:01:50;98860.00;;;-1.86;94.40
38852;BME280;24605;50.092;9.182;2023-03-01T02:04:18;98862.47;;;-2.03;95.29
38852;BME280;24605;50.092;9.182;2023-03-01T02:06:48;98861.50;;;-2.22;96.51
38852;BME280;24605;50.092;9.182;2023-03-01T02:09:19;98863.69;;;-2.33;97.75
38852;BME280;24605;50.092;9.182;2023-03-01T02:11:47;98851.94;;;-2.18;97.18
38852;BME280;24605;50.092;9.182;2023-03-01T02:14:15;98835.00;;;-2.22;96.48
38852;BME280;24605;50.092;9.182;2023-03-01T02:16:41;98847.09;;;-2.05;96.19
38852;BME280;24605;50.092;9.182;2023-03-01T02:19:15;98848.66;;;-2.01;95.80
38852;BME280;24605;50.092;9.182;2023-03-01T02:21:51;98845.44;;;-2.06;96.20
38852;BME280;24605;50.092;9.182;2023-03-01T02:24:28;98846.47;;;-2.10;97.01
38852;BME280;24605;50.092;9.182;2023-03-01T02:27:00;98843.72;;;-2.06;97.10
38852;BME280;24605;50.092;9.182;2023-03-01T02:29:29;98806.19;;;-2.10;96.97
38852;BME280;24605;50.092;9.182;2023-03-01T02:31:58;98835.03;;;-2.03;97.03
38852;BME280;24605;50.092;9.182;2023-03-01T02:34:26;98836.50;;;-1.97;97.17
38852;BME280;24605;50.092;9.182;2023-03-01T02:36:56;98829.38;;;-1.91;96.40
38852;BME280;24605;50.092;9.182;2023-03-01T02:39:26;98826.44;;;-2.02;96.88
38852;BME280;24605;50.092;9.182;2023-03-01T02:41:55;98824.47;;;-2.16;97.71
38852;BME280;24605;50.092;9.182;2023-03-01T02:44:23;98825.56;;;-2.02;96.77
38852;BME280;24605;50.092;9.182;2023-03-01T02:46:52;98819.69;;;-2.05;95.89
38852;BME280;24605;50.092;9.182;2023-03-01T02:49:22;98815.59;;;-2.09;96.96
38852;BME280;24605;50.092;9.182;2023-03-01T02:52:08;98816.56;;;-1.92;96.50
38852;BME280;24605;50.092;9.182;2023-03-01T02:54:44;98812.97;;;-1.88;95.83
38852;BME280;24605;50.092;9.182;2023-03-01T02:57:13;98812.31;;;-1.93;95.93
38852;BME280;24605;50.092;9.182;2023-03-01T02:59:40;98806.84;;;-2.05;96.53
38852;BME280;24605;50.092;9.182;2023-03-01T03:02:19;98795.72;;;-2.24;97.81
38852;BME280;24605;50.092;9.182;2023-03-01T03:05:01;98799.59;;;-2.15;98.49
38852;BME280;24605;50.092;9.182;2023-03-01T03:07:29;98790.25;;;-2.16;98.57
38852;BME280;24605;50.092;9.182;2023-03-01T03:09:56;98767.25;;;-2.39;99.26
38852;BME280;24605;50.092;9.182;2023-03-01T03:12:23;98753.47;;;-2.38;99.23
38852;BME280;24605;50.092;9.182;2023-03-01T03:14:49;98759.47;;;-2.37;99.78
38852;BME280;24605;50.092;9.182;2023-03-01T03:17:17;98734.31;;;-2.49;99.52
38852;BME280;24605;50.092;9.182;2023-03-01T03:19:44;98744.56;;;-2.49;100.00
38852;BME280;24605;50.092;9.182;2023-03-01T03:22:11;98713.44;;;-2.81;100.00
38852;BME280;24605;50.092;9.182;2023-03-01T03:24:38;98780.69;;;-2.33;100.00
38852;BME280;24605;50.092;9.182;2023-03-01T03:27:05;98775.69;;;-2.37;100.00
38852;BME280;24605;50.092;9.182;2023-03-01T03:29:32;98733.81;;;-2.58;100.00
38852;BME280;24605;50.092;9.182;2023-03-01T03:31:58;98761.25;;;-2.39;100.00
38852;BME280;24605;50.092;9.182;2023-03-01T03:34:26;98754.19;;;-2.34;100.00
38852;BME280;24605;50.092;9.182;2023-03-01T03:36:53;98753.66;;;-2.22;100.00
38852;BME280;24605;50.092;9.182;2023-03-01T03:39:25;98755.81;;;-2.12;99.15
38852;BME280;24605;50.092;9.182;2023-03-01T03:41:52;98736.28;;;-2.36;99.77
38852;BME280;24605;50.092;9.182;2023-03-01T03:44:18;98714.22;;;-2.40;99.53
38852;BME280;24605;50.092;9.182;2023-03-01T03:46:45;98768.47;;;-2.28;100.00
38852;BME280;24605;50.092;9.182;2023-03-01T03:49:11;98761.56;;;-2.26;100.00
38852;BME280;24605;50.092;9.182;2023-03-01T03:51:39;98748.13;;;-2.33;100.00
38852;BME280;24605;50.092;9.182;2023-03-01T03:54:05;98743.56;;;-2.45;100.00
38852;BME280;24605;50.092;9.182;2023-03-01T03:56:32;98762.25;;;-2.23;100.00
38852;BME280;24605;50.092;9.182;2023-03-01T03:58:58;98761.19;;;-2.38;100.00
38852;BME280;24605;50.092;9.182;2023-03-01T04:01:25;98756.81;;;-2.36;100.00
38852;BME280;24605;50.092;9.182;2023-03-01T04:03:52;98737.06;;;-2.54;100.00
38852;BME280;24605;50.092;9.182;2023-03-01T04:06:20;98705.06;;;-2.85;100.00
38852;BME280;24605;50.092;9.182;2023-03-01T04:08:48;98767.50;;;-2.45;100.00
38852;BME280;24605;50.092;9.182;2023-03-01T04:11:25;98735.19;;;-2.70;100.00
38852;BME280;24605;50.092;9.182;2023-03-01T04:13:57;98754.84;;;-2.49;100.00
38852;BME280;24605;50.092;9.182;2023-03-01T04:16:24;98717.03;;;-2.86;100.00
38852;BME280;24605;50.092;9.182;2023-03-01T04:18:51;98753.56;;;-2.60;100.00
38852;BME280;24605;50.092;9.182;2023-03-01T04:21:19;98750.81;;;-2.55;100.00
38852;BME280;24605;50.092;9.182;2023-03-01T04:23:46;98749.91;;;-2.54;100.00
38852;BME280;24605;50.092;9.182;2023-03-01T04:26:13;98749.91;;;-2.54;100.00
38852;BME280;24605;50.092;9.182;2023-03-01T04:28:41;98744.97;;;-2.59;100.00
38852;BME280;24605;50.092;9.182;2023-03-01T04:31:11;98726.59;;;-2.69;100.00
38852;BME280;24605;50.092;9.182;2023-03-01T04:33:44;98747.75;;;-2.63;100.00
38852;BME280;24605;50.092;9.182;2023-03-01T04:36:12;98741.16;;;-2.69;100.00
38852;BME280;24605;50.092;9.182;2023-03-01T04:38:39;98745.06;;;-2.81;100.00
38852;BME280;24605;50.092;9.182;2023-03-01T04:41:07;98733.72;;;-2.75;100.00
38852;BME280;24605;50.092;9.182;2023-03-01T04:43:36;98742.25;;;-2.75;100.00
38852;BME280;24605;50.092;9.182;2023-03-01T04:46:04;98739.00;;;-2.78;100.00
38852;BME280;24605;50.092;9.182;2023-03-01T04:48:34;98725.56;;;-2.85;100.00
38852;BME280;24605;50.092;9.182;2023-03-01T04:51:01;98738.25;;;-2.82;100.00
38852;BME280;24605;50.092;9.182;2023-03-01T04:53:28;98740.81;;;-2.82;100.00
38852;BME280;24605;50.092;9.182;2023-03-01T04:55:56;98743.81;;;-2.91;100.00
38852;BME280;24605;50.092;9.182;2023-03-01T04:58:23;98740.47;;;-2.93;100.00
38852;BME280;24605;50.092;9.182;2023-03-01T05:00:52;98729.03;;;-3.07;100.00
38852;BME280;24605;50.092;9.182;2023-03-01T05:03:19;98735.53;;;-2.98;100.00
38852;BME280;24605;50.092;9.182;2023-03-01T05:05:48;98736.09;;;-3.12;100.00
38852;BME280;24605;50.092;9.182;2023-03-01T05:08:15;98740.91;;;-3.04;100.00
38852;BME280;24605;50.092;9.182;2023-03-01T05:10:44;98752.44;;;-2.94;100.00
38852;BME280;24605;50.092;9.182;2023-03-01T05:13:13;98744.19;;;-3.01;100.00
38852;BME280;24605;50.092;9.182;2023-03-01T05:15:40;98744.94;;;-2.99;100.00
38852;BME280;24605;50.092;9.182;2023-03-01T05:18:08;98745.81;;;-3.00;100.00
38852;BME280;24605;50.092;9.182;2023-03-01T05:20:37;98742.69;;;-2.86;100.00
38852;BME280;24605;50.092;9.182;2023-03-01T05:23:04;98747.44;;;-2.76;100.00
38852;BME280;24605;50.092;9.182;2023-03-01T05:25:32;98729.94;;;-2.87;100.00
38852;BME280;24605;50.092;9.182;2023-03-01T05:27:58;98742.75;;;-2.66;100.00
38852;BME280;24605;50.092;9.182;2023-03-01T05:30:29;98732.50;;;-2.66;100.00
38852;BME280;24605;50.092;9.182;2023-03-01T05:32:56;98727.34;;;-2.66;100.00
38852;BME280;24605;50.092;9.182;2023-03-01T05:35:24;98745.44;;;-2.49;100.00
38852;BME280;24605;50.092;9.182;2023-03-01T05:37:51;98742.22;;;-2.54;100.00
38852;BME280;24605;50.092;9.182;2023-03-01T05:40:19;98735.75;;;-2.63;100.00
38852;BME280;24605;50.092;9.182;2023-03-01T05:42:48;98740.28;;;-2.49;100.00
38852;BME280;24605;50.092;9.182;2023-03-01T05:45:16;98727.59;;;-2.52;100.00
38852;BME280;24605;50.092;9.182;2023-03-01T05:47:44;98738.84;;;-2.36;100.00
38852;BME280;24605;50.092;9.182;2023-03-01T05:50:12;98730.56;;;-2.42;100.00
38852;BME280;24605;50.092;9.182;2023-03-01T05:52:41;98738.56;;;-2.48;100.00
38852;BME280;24605;50.092;9.182;2023-03-01T05:55:08;98730.22;;;-2.54;100.00
38852;BME280;24605;50.092;9.182;2023-03-01T05:57:34;98735.94;;;-2.47;100.00
38852;BME280;24605;50.092;9.182;2023-03-01T06:00:01;98721.56;;;-2.51;100.00
38852;BME280;24605;50.092;9.182;2023-03-01T06:02:28;98736.97;;;-2.32;100.00
38852;BME280;24605;50.092;9.182;2023-03-01T06:04:54;98738.31;;;-2.23;100.00
38852;BME280;24605;50.092;9.182;2023-03-01T06:07:21;98732.53;;;-2.28;100.00
38852;BME280;24605;50.092;9.182;2023-03-01T06:09:48;98727.28;;;-2.25;100.00
38852;BME280;24605;50.092;9.182;2023-03-01T06:12:15;98738.78;;;-2.34;100.00
38852;BME280;24605;50.092;9.182;2023-03-01T06:14:42;98733.72;;;-2.36;100.00
38852;BME280;24605;50.092;9.182;2023-03-01T06:17:09;98738.22;;;-2.41;100.00
38852;BME280;24605;50.092;9.182;2023-03-01T06:19:35;98736.16;;;-2.32;100.00
38852;BME280;24605;50.092;9.182;2023-03-01T06:22:02;98733.22;;;-2.25;100.00
38852;BME280;24605;50.092;9.182;2023-03-01T06:24:28;98703.38;;;-2.46;100.00
38852;BME280;24605;50.092;9.182;2023-03-01T06:26:56;98725.31;;;-2.20;100.00
38852;BME280;24605;50.092;9.182;2023-03-01T06:29:22;98727.19;;;-2.24;100.00
38852;BME280;24605;50.092;9.182;2023-03-01T06:31:49;98713.88;;;-2.32;100.00
38852;BME280;24605;50.092;9.182;2023-03-01T06:34:15;98718.94;;;-2.30;100.00
38852;BME280;24605;50.092;9.182;2023-03-01T06:36:42;98719.22;;;-2.17;100.00
38852;BME280;24605;50.092;9.182;2023-03-01T06:39:08;98703.88;;;-2.19;100.00
38852;BME280;24605;50.092;9.182;2023-03-01T06:41:35;98717.22;;;-1.92;100.00
38852;BME280;24605;50.092;9.182;2023-03-01T06:44:03;98722.34;;;-1.92;100.00
38852;BME280;24605;50.092;9.182;2023-03-01T06:46:29;98717.22;;;-1.92;100.00
38852;BME280;24605;50.092;9.182;2023-03-01T06:48:56;98711.56;;;-1.81;99.31
38852;BME280;24605;50.092;9.182;2023-03-01T06:51:23;98709.94;;;-1.64;99.13
38852;BME280;24605;50.092;9.182;2023-03-01T06:53:50;98698.06;;;-1.67;97.53
38852;BME280;24605;50.092;9.182;2023-03-01T06:56:17;98700.44;;;-1.45;95.17
38852;BME280;24605;50.092;9.182;2023-03-01T06:58:43;98716.88;;;-1.30;93.26
38852;BME280;24605;50.092;9.182;2023-03-01T07:01:11;98713.84;;;-1.03;91.95
38852;BME280;24605;50.092;9.182;2023-03-01T07:03:38;98715.72;;;-0.89;89.08
38852;BME280;24605;50.092;9.182;2023-03-01T07:06:04;98712.03;;;-0.67;87.07
38852;BME280;24605;50.092;9.182;2023-03-01T07:08:31;98710.66;;;-0.57;85.36
38852;BME280;24605;50.092;9.182;2023-03-01T07:10:58;98712.63;;;-0.44;84.26
38852;BME280;24605;50.092;9.182;2023-03-01T07:13:27;98706.66;;;-0.29;83.98
38852;BME280;24605;50.092;9.182;2023-03-01T07:15:53;98711.56;;;-0.24;81.69
38852;BME280;24605;50.092;9.182;2023-03-01T07:18:21;98715.28;;;0.02;82.40
38852;BME280;24605;50.092;9.182;2023-03-01T07:20:48;98704.06;;;0.03;82.06
38852;BME280;24605;50.092;9.182;2023-03-01T07:23:14;98711.72;;;-0.11;81.13
38852;BME280;24605;50.092;9.182;2023-03-01T07:25:41;98703.81;;;0.08;79.92
38852;BME280;24605;50.092;9.182;2023-03-01T07:28:07;98717.31;;;0.13;78.77
38852;BME280;24605;50.092;9.182;2023-03-01T07:30:34;98711.91;;;0.18;79.19
38852;BME280;24605;50.092;9.182;2023-03-01T07:33:00;98713.84;;;0.44;78.13
38852;BME280;24605;50.092;9.182;2023-03-01T07:35:28;98701.03;;;0.43;76.90
38852;BME280;24605;50.092;9.182;2023-03-01T07:37:55;98702.19;;;0.53;77.37
38852;BME280;24605;50.092;9.182;2023-03-01T07:40:21;98707.50;;;0.66;76.06
38852;BME280;24605;50.092;9.182;2023-03-01T07:42:47;98703.97;;;0.83;76.07
38852;BME280;24605;50.092;9.182;2023-03-01T07:45:14;98699.63;;;0.53;75.40
38852;BME280;24605;50.092;9.182;2023-03-01T07:47:40;98702.09;;;0.85;74.46
38852;BME280;24605;50.092;9.182;2023-03-01T07:50:08;98702.69;;;1.05;74.60
38852;BME280;24605;50.092;9.182;2023-03-01T07:52:36;98695.72;;;0.46;74.78
38852;BME280;24605;50.092;9.182;2023-03-01T07:55:03;98691.59;;;0.74;74.22
38852;BME280;24605;50.092;9.182;2023-03-01T07:57:30;98699.34;;;0.88;73.70
38852;BME280;24605;50.092;9.182;2023-03-01T07:59:56;98696.03;;;0.86;73.21
38852;BME280;24605;50.092;9.182;2023-03-01T08:02:23;98699.25;;;0.59;73.99
38852;BME280;24605;50.092;9.182;2023-03-01T08:04:49;98692.84;;;0.67;73.64
38852;BME280;24605;50.092;9.182;2023-03-01T08:07:16;98696.94;;;0.85;73.16
38852;BME280;24605;50.092;9.182;2023-03-01T08:09:43;98693.69;;;0.67;74.38
38852;BME280;24605;50.092;9.182;2023-03-01T08:12:10;98692.13;;;0.65;74.33
38852;BME280;24605;50.092;9.182;2023-03-01T08:14:37;98683.25;;;0.69;73.56
38852;BME280;24605;50.092;9.182;2023-03-01T08:17:03;98687.63;;;0.83;73.67
38852;BME280;24605;50.092;9.182;2023-03-01T08:19:30;98690.56;;;0.76;73.06
38852;BME280;24605;50.092;9.182;2023-03-01T08:21:57;98672.28;;;0.65;73.34
38852;BME280;24605;50.092;9.182;2023-03-01T08:24:25;98677.84;;;0.73;72.63
38852;BME280;24605;50.092;9.182;2023-03-01T08:26:53;98683.38;;;0.82;72.19
38852;BME280;24605;50.092;9.182;2023-03-01T08:29:20;98670.41;;;0.98;71.62
38852;BME280;24605;50.092;9.182;2023-03-01T08:31:46;98673.63;;;0.87;72.02
38852;BME280;24605;50.092;9.182;2023-03-01T08:34:15;98680.75;;;0.98;71.57
38852;BME280;24605;50.092;9.182;2023-03-01T08:36:43;98679.09;;;0.97;71.39
38852;BME280;24605;50.092;9.182;2023-03-01T08:39:12;98682.31;;;1.15;71.78
38852;BME280;24605;50.092;9.182;2023-03-01T08:41:39;98670.53;;;1.11;71.45
38852;BME280;24605;50.092;9.182;2023-03-01T08:44:08;98676.88;;;1.19;70.60
38852;BME280;24605;50.092;9.182;2023-03-01T08:46:37;98656.31;;;1.18;70.61
38852;BME280;24605;50.092;9.182;2023-03-01T08:49:04;98676.59;;;1.24;69.84
38852;BME280;24605;50.092;9.182;2023-03-01T08:51:31;98661.03;;;1.25;70.17
38852;BME280;24605;50.092;9.182;2023-03-01T08:54:02;98652.94;;;1.17;70.08
38852;BME280;24605;50.092;9.182;2023-03-01T08:56:30;98643.44;;;1.32;68.10
38852;BME280;24605;50.092;9.182;2023-03-01T08:58:57;98653.28;;;1.40;68.21
38852;BME280;24605;50.092;9.182;2023-03-01T09:01:25;98647.66;;;1.48;68.06
38852;BME280;24605;50.092;9.182;2023-03-01T09:03:51;98654.19;;;1.68;68.65
38852;BME280;24605;50.092;9.182;2023-03-01T09:06:18;98651.13;;;1.76;68.48
38852;BME280;24605;50.092;9.182;2023-03-01T09:08:46;98639.50;;;1.68;67.43
38852;BME280;24605;50.092;9.182;2023-03-01T09:11:15;98642.63;;;1.74;68.40
38852;BME280;24605;50.092;9.182;2023-03-01T09:13:42;98640.63;;;1.92;66.81
38852;BME280;24605;50.092;9.182;2023-03-01T09:16:09;98649.25;;;1.92;66.40
38852;BME280;24605;50.092;9.182;2023-03-01T09:18:38;98650.16;;;1.91;65.75
38852;BME280;24605;50.092;9.182;2023-03-01T09:21:05;98643.00;;;2.09;66.48
38852;BME280;24605;50.092;9.182;2023-03-01T09:23:33;98637.84;;;2.22;65.07
38852;BME280;24605;50.092;9.182;2023-03-01T09:26:01;98630.66;;;2.27;64.67
38852;BME280;24605;50.092;9.182;2023-03-01T09:28:27;98611.25;;;2.07;64.66
38852;BME280;24605;50.092;9.182;2023-03-01T09:30:57;98634.38;;;2.36;63.88
38852;BME280;24605;50.092;9.182;2023-03-01T09:33:24;98627.47;;;2.37;64.15
38852;BME280;24605;50.092;9.182;2023-03-01T09:35:57;98629.75;;;2.41;64.23
38852;BME280;24605;50.092;9.182;2023-03-01T09:38:23;98635.25;;;2.49;63.33
38852;BME280;24605;50.092;9.182;2023-03-01T09:40:49;98626.97;;;2.57;62.28
38852;BME280;24605;50.092;9.182;2023-03-01T09:43:21;98608.75;;;2.46;61.37
38852;BME280;24605;50.092;9.182;2023-03-01T09:45:50;98626.03;;;2.58;61.57
38852;BME280;24605;50.092;9.182;2023-03-01T09:48:21;98611.66;;;2.54;60.55
38852;BME280;24605;50.092;9.182;2023-03-01T09:50:50;98624.09;;;2.75;61.40
38852;BME280;24605;50.092;9.182;2023-03-01T09:53:21;98622.34;;;2.62;61.44
38852;BME280;24605;50.092;9.182;2023-03-01T09:55:51;98621.63;;;2.86;61.88
38852;BME280;24605;50.092;9.182;2023-03-01T09:58:31;98620.38;;;2.92;60.73
38852;BME280;24605;50.092;9.182;2023-03-01T10:01:06;98607.94;;;2.71;59.73
38852;BME280;24605;50.092;9.182;2023-03-01T10:03:40;98613.34;;;2.81;59.67
38852;BME280;24605;50.092;9.182;2023-03-01T10:06:11;98632.28;;;2.94;59.43
38852;BME280;24605;50.092;9.182;2023-03-01T10:08:43;98621.50;;;3.01;59.13
38852;BME280;24605;50.092;9.182;2023-03-01T10:11:20;98616.34;;;3.01;59.34
38852;BME280;24605;50.092;9.182;2023-03-01T10:13:51;98622.84;;;3.19;58.90
38852;BME280;24605;50.092;9.182;2023-03-01T10:16:25;98624.94;;;3.14;57.60
38852;BME280;24605;50.092;9.182;2023-03-01T10:18:55;98623.88;;;3.29;57.93
38852;BME280;24605;50.092;9.182;2023-03-01T10:21:27;98614.13;;;3.33;57.74
38852;BME280;24605;50.092;9.182;2023-03-01T10:23:59;98608.94;;;3.33;56.41
38852;BME280;24605;50.092;9.182;2023-03-01T10:26:43;98610.72;;;3.33;56.63
38852;BME280;24605;50.092;9.182;2023-03-01T10:29:13;98605.56;;;3.20;56.37
38852;BME280;24605;50.092;9.182;2023-03-01T10:31:43;98593.63;;;3.30;56.61
38852;BME280;24605;50.092;9.182;2023-03-01T10:34:12;98583.59;;;3.25;55.48
38852;BME280;24605;50.092;9.182;2023-03-01T10:36:40;98587.47;;;3.44;55.43
38852;BME280;24605;50.092;9.182;2023-03-01T10:39:14;98578.13;;;3.41;56.26
38852;BME280;24605;50.092;9.182;2023-03-01T10:42:01;98582.69;;;3.51;56.17
38852;BME280;24605;50.092;9.182;2023-03-01T10:44:37;98577.56;;;3.62;55.10
38852;BME280;24605;50.092;9.182;2023-03-01T10:47:04;98568.81;;;3.76;54.30
38852;BME280;24605;50.092;9.182;2023-03-01T10:49:31;98564.34;;;3.78;52.88
38852;BME280;24605;50.092;9.182;2023-03-01T10:52:11;98562.56;;;4.03;52.70
38852;BME280;24605;50.092;9.182;2023-03-01T10:54:51;98558.97;;;3.92;51.75
38852;BME280;24605;50.092;9.182;2023-03-01T10:57:28;98562.63;;;4.14;52.29
38852;BME280;24605;50.092;9.182;2023-03-01T11:00:14;98548.13;;;4.23;52.94
38852;BME280;24605;50.092;9.182;2023-03-01T11:02:41;98556.63;;;4.36;50.63
38852;BME280;24605;50.092;9.182;2023-03-01T11:05:18;98549.91;;;4.34;49.89
38852;BME280;24605;50.092;9.182;2023-03-01T11:07:49;98551.94;;;4.42;50.33
38852;BME280;24605;50.092;9.182;2023-03-01T11:10:22;98544.28;;;4.51;49.14
38852;BME280;24605;50.092;9.182;2023-03-01T11:12:50;98541.94;;;4.48;49.41
38852;BME280;24605;50.092;9.182;2023-03-01T11:15:24;98545.75;;;4.67;48.84
38852;BME280;24605;50.092;9.182;2023-03-01T11:17:51;98543.50;;;4.74;49.34
38852;BME280;24605;50.092;9.182;2023-03-01T11:20:24;98540.31;;;4.70;47.37
38852;BME280;24605;50.092;9.182;2023-03-01T11:22:54;98540.56;;;4.67;46.93
38852;BME280;24605;50.092;9.182;2023-03-01T11:25:24;98534.88;;;4.73;46.04
38852;BME280;24605;50.092;9.182;2023-03-01T11:27:53;98531.22;;;4.76;46.48
38852;BME280;24605;50.092;9.182;2023-03-01T11:30:22;98521.66;;;4.76;46.18
38852;BME280;24605;50.092;9.182;2023-03-01T11:32:59;98522.59;;;4.86;45.84
38852;BME280;24605;50.092;9.182;2023-03-01T11:35:29;98524.50;;;4.96;45.00
38852;BME280;24605;50.092;9.182;2023-03-01T11:38:03;98522.84;;;5.06;44.84
38852;BME280;24605;50.092;9.182;2023-03-01T11:40:34;98499.22;;;5.09;44.44
38852;BME280;24605;50.092;9.182;2023-03-01T11:43:06;98521.63;;;5.33;43.50
38852;BME280;24605;50.092;9.182;2023-03-01T11:45:46;98506.88;;;5.11;43.17
38852;BME280;24605;50.092;9.182;2023-03-01T11:48:30;98508.53;;;5.12;43.20
38852;BME280;24605;50.092;9.182;2023-03-01T11:51:04;98511.78;;;5.48;45.00
38852;BME280;24605;50.092;9.182;2023-03-01T11:53:44;98503.44;;;5.65;42.76
38852;BME280;24605;50.092;9.182;2023-03-01T11:56:23;98480.97;;;5.32;42.40
38852;BME280;24605;50.092;9.182;2023-03-01T11:59:03;98494.38;;;5.60;43.12
38852;BME280;24605;50.092;9.182;2023-03-01T12:01:43;98493.84;;;5.66;43.24
38852;BME280;24605;50.092;9.182;2023-03-01T12:04:54;98483.72;;;5.63;43.01
38852;BME280;24605;50.092;9.182;2023-03-01T12:07:27;98490.41;;;5.77;43.25
38852;BME280;24605;50.092;9.182;2023-03-01T12:10:23;98489.06;;;5.83;43.71
38852;BME280;24605;50.092;9.182;2023-03-01T12:13:02;98468.78;;;5.65;43.82
38852;BME280;24605;50.092;9.182;2023-03-01T12:16:05;98468.25;;;5.83;43.29
38852;BME280;24605;50.092;9.182;2023-03-01T12:18:57;98457.22;;;5.90;42.69
38852;BME280;24605;50.092;9.182;2023-03-01T12:21:32;98460.81;;;6.10;43.87
38852;BME280;24605;50.092;9.182;2023-03-01T12:24:28;98455.88;;;6.07;44.76
38852;BME280;24605;50.092;9.182;2023-03-01T12:27:11;98454.47;;;5.92;43.69
38852;BME280;24605;50.092;9.182;2023-03-01T12:29:50;98439.56;;;6.05;43.21
38852;BME280;24605;50.092;9.182;2023-03-01T12:32:27;98436.94;;;6.05;43.90
38852;BME280;24605;50.092;9.182;2023-03-01T12:37:58;98431.09;;;6.13;46.18
38852;BME280;24605;50.092;9.182;2023-03-01T12:40:38;98388.88;;;5.88;44.15
38852;BME280;24605;50.092;9.182;2023-03-01T12:43:17;98403.28;;;6.14;44.19
38852;BME280;24605;50.092;9.182;2023-03-01T12:46:00;98417.03;;;6.25;43.85
38852;BME280;24605;50.092;9.182;2023-03-01T12:48:41;98417.09;;;6.35;45.60
38852;BME280;24605;50.092;9.182;2023-03-01T12:51:12;98394.41;;;6.47;45.56
38852;BME280;24605;50.092;9.182;2023-03-01T12:53:42;98413.34;;;6.59;47.25
38852;BME280;24605;50.092;9.182;2023-03-01T12:56:13;98404.44;;;6.00;47.00
38852;BME280;24605;50.092;9.182;2023-03-01T12:58:49;98408.81;;;6.20;48.44
38852;BME280;24605;50.092;9.182;2023-03-01T13:01:31;98399.53;;;6.27;48.88
38852;BME280;24605;50.092;9.182;2023-03-01T13:04:23;98398.19;;;6.33;46.64
38852;BME280;24605;50.092;9.182;2023-03-01T13:07:02;98403.09;;;6.36;46.11
38852;BME280;24605;50.092;9.182;2023-03-01T13:09:36;98394.50;;;6.46;45.89
38852;BME280;24605;50.092;9.182;2023-03-01T13:12:41;98385.75;;;6.47;45.47
38852;BME280;24605;50.092;9.182;2023-03-01T13:15:34;98383.47;;;6.63;47.84
38852;BME280;24605;50.092;9.182;2023-03-01T13:18:03;98376.28;;;6.46;47.28
38852;BME280;24605;50.092;9.182;2023-03-01T13:20:34;98374.34;;;6.38;44.88